sensor_id;sensor_type;location;lat;lon;timestamp;temperature;humidity
3051;DHT22;1535;51.098;6.414;2023-03-05T00:01:43;4.90;99.90
3051;DHT22;1535;51.098;6.414;2023-03-05T00:04:12;4.90;99.90
3051;DHT22;1535;51.098;6.414;2023-03-05T00:06:39;5.00;99.90
3051;DHT22;1535;51.098;6.414;2023-03-05T00:09:06;4.90;99.90
3051;DHT22;1535;51.098;6.414;2023-03-05T00:11:33;5.00;99.90
3051;DHT22;1535;51.098;6.414;2023-03-05T00:14:01;5.00;99.90
3051;DHT22;1535;51.098;6.414;2023-03-05T00:16:32;4.90;99.90
3051;DHT22;1535;51.098;6.414;2023-03-05T00:18:59;4.80;99.90
3051;DHT22;1535;51.098;6.414;2023-03-05T00:21:28;4.80;99.90
3051;DHT22;1535;51.098;6.414;2023-03-05T00:23:56;4.70;99.90
3051;DHT22;1535;51.098;6.414;2023-03-05T00:26:26;4.60;99.90
3051;DHT22;1535;51.098;6.414;2023-03-05T00:28:54;4.60;99.90
3051;DHT22;1535;51.098;6.414;2023-03-05T00:31:23;4.60;99.90
3051;DHT22;1535;51.098;6.414;2023-03-05T00:33:53;4.60;99.90
3051;DHT22;1535;51.098;6.414;2023-03-05T00:36:20;4.50;99.90
3051;DHT22;1535;51.098;6.414;2023-03-05T00:38:47;4.40;99.90
3051;DHT22;1535;51.098;6.414;2023-03-05T00:41:14;4.40;99.90
3051;DHT22;1535;51.098;6.414;2023-03-05T00:43:41;4.40;99.90
3051;DHT22;1535;51.098;6.414;2023-03-05T00:46:08;4.30;99.90
3051;DHT22;1535;51.098;6.414;2023-03-05T00:48:35;4.20;99.90
3051;DHT22;1535;51.098;6.414;2023-03-05T00:51:04;4.20;99.90
3051;DHT22;1535;51.098;6.414;2023-03-05T00:53:31;4.20;99.90
3051;DHT22;1535;51.098;6.414;2023-03-05T00:55:58;4.20;99.90
3051;DHT22;1535;51.098;6.414;2023-03-05T00:58:24;4.20;99.90
3051;DHT22;1535;51.098;6.414;2023-03-05T01:00:52;4.30;99.90
3051;DHT22;1535;51.098;6.414;2023-03-05T01:03:23;4.30;99.90
3051;DHT22;1535;51.098;6.414;2023-03-05T01:05:49;4.40;99.90
3051;DHT22;1535;51.098;6.414;2023-03-05T01:08:18;4.50;99.90
3051;DHT22;1535;51.098;6.414;2023-03-05T01:10:46;4.40;99.90
3051;DHT22;1535;51.098;6.414;2023-03-05T01:13:13;4.50;99.90
3051;DHT22;1535;51.098;6.414;2023-03-05T01:15:40;4.50;99.90
3051;DHT22;1535;51.098;6.414;2023-03-05T01:18:07;4.50;99.90
3051;DHT22;1535;51.098;6.414;2023-03-05T01:20:34;4.50;99.90
3051;DHT22;1535;51.098;6.414;2023-03-05T01:23:01;4.60;99.90
3051;DHT22;1535;51.098;6.414;2023-03-05T01:25:30;4.60;99.90
3051;DHT22;1535;51.098;6.414;2023-03-05T01:27:57;4.60;99.90
3051;DHT22;1535;51.098;6.414;2023-03-05T01:30:23;4.50;99.90
3051;DHT22;1535;51.098;6.414;2023-03-05T01:32:50;4.50;99.90
3051;DHT22;1535;51.098;6.414;2023-03-05T01:35:20;4.50;99.90
3051;DHT22;1535;51.098;6.414;2023-03-05T01:37:47;4.50;99.90
3051;DHT22;1535;51.098;6.414;2023-03-05T01:40:16;4.50;99.90
3051;DHT22;1535;51.098;6.414;2023-03-05T01:42:47;4.40;99.90
3051;DHT22;1535;51.098;6.414;2023-03-05T01:45:17;4.50;99.90
3051;DHT22;1535;51.098;6.414;2023-03-05T01:47:44;4.40;99.90
3051;DHT22;1535;51.098;6.414;2023-03-05T01:50:16;4.50;99.90
3051;DHT22;1535;51.098;6.414;2023-03-05T01:52:47;4.50;99.90
3051;DHT22;1535;51.098;6.414;2023-03-05T01:55:17;4.50;99.90
3051;DHT22;1535;51.098;6.414;2023-03-05T01:57:49;4.40;99.90
3051;DHT22;1535;51.098;6.414;2023-03-05T02:00:22;4.40;99.90
3051;DHT22;1535;51.098;6.414;2023-03-05T02:02:51;4.40;99.90
3051;DHT22;1535;51.098;6.414;2023-03-05T02:05:19;4.30;99.90
3051;DHT22;1535;51.098;6.414;2023-03-05T02:07:52;4.40;99.90
3051;DHT22;1535;51.098;6.414;2023-03-05T02:10:21;4.40;99.90
3051;DHT22;1535;51.098;6.414;2023-03-05T02:12:52;4.40;99.90
3051;DHT22;1535;51.098;6.414;2023-03-05T02:15:20;4.50;99.90
3051;DHT22;1535;51.098;6.414;2023-03-05T02:17:47;4.40;99.90
3051;DHT22;1535;51.098;6.414;2023-03-05T02:20:16;4.50;99.90
3051;DHT22;1535;51.098;6.414;2023-03-05T02:22:45;4.50;99.90
3051;DHT22;1535;51.098;6.414;2023-03-05T02:25:16;4.50;99.90
3051;DHT22;1535;51.098;6.414;2023-03-05T02:27:49;4.40;99.90
3051;DHT22;1535;51.098;6.414;2023-03-05T02:30:18;4.40;99.90
3051;DHT22;1535;51.098;6.414;2023-03-05T02:32:44;4.40;99.90
3051;DHT22;1535;51.098;6.414;2023-03-05T02:35:11;4.30;99.90
3051;DHT22;1535;51.098;6.414;2023-03-05T02:37:38;4.30;99.90
3051;DHT22;1535;51.098;6.414;2023-03-05T02:40:08;4.30;99.90
3051;DHT22;1535;51.098;6.414;2023-03-05T02:42:35;4.30;99.90
3051;DHT22;1535;51.098;6.414;2023-03-05T02:45:03;4.40;99.90
3051;DHT22;1535;51.098;6.414;2023-03-05T02:47:31;4.40;99.90
3051;DHT22;1535;51.098;6.414;2023-03-05T02:49:58;4.40;99.90
3051;DHT22;1535;51.098;6.414;2023-03-05T02:52:26;4.40;99.90
3051;DHT22;1535;51.098;6.414;2023-03-05T02:54:53;4.30;99.90
3051;DHT22;1535;51.098;6.414;2023-03-05T02:57:21;4.30;99.90
3051;DHT22;1535;51.098;6.414;2023-03-05T02:59:48;4.40;99.90
3051;DHT22;1535;51.098;6.414;2023-03-05T03:02:15;4.30;99.90
3051;DHT22;1535;51.098;6.414;2023-03-05T03:04:42;4.10;99.90
3051;DHT22;1535;51.098;6.414;2023-03-05T03:07:09;4.00;99.90
3051;DHT22;1535;51.098;6.414;2023-03-05T03:09:36;3.90;99.90
3051;DHT22;1535;51.098;6.414;2023-03-05T03:12:05;4.00;99.90
3051;DHT22;1535;51.098;6.414;2023-03-05T03:14:34;4.10;99.90
3051;DHT22;1535;51.098;6.414;2023-03-05T03:17:04;4.00;99.90
3051;DHT22;1535;51.098;6.414;2023-03-05T03:19:31;3.90;99.90
3051;DHT22;1535;51.098;6.414;2023-03-05T03:21:58;3.90;99.90
3051;DHT22;1535;51.098;6.414;2023-03-05T03:24:25;3.80;99.90
3051;DHT22;1535;51.098;6.414;2023-03-05T03:26:52;3.80;99.90
3051;DHT22;1535;51.098;6.414;2023-03-05T03:29:19;3.80;99.90
3051;DHT22;1535;51.098;6.414;2023-03-05T03:31:47;3.90;99.90
3051;DHT22;1535;51.098;6.414;2023-03-05T03:34:14;3.80;99.90
3051;DHT22;1535;51.098;6.414;2023-03-05T03:36:41;3.80;99.90
3051;DHT22;1535;51.098;6.414;2023-03-05T03:39:09;3.80;99.90
3051;DHT22;1535;51.098;6.414;2023-03-05T03:41:36;3.80;99.90
3051;DHT22;1535;51.098;6.414;2023-03-05T03:44:03;3.80;99.90
3051;DHT22;1535;51.098;6.414;2023-03-05T03:46:33;3.90;99.90
3051;DHT22;1535;51.098;6.414;2023-03-05T03:49:02;3.90;99.90
3051;DHT22;1535;51.098;6.414;2023-03-05T03:51:29;3.80;99.90
3051;DHT22;1535;51.098;6.414;2023-03-05T03:53:56;3.80;99.90
3051;DHT22;1535;51.098;6.414;2023-03-05T03:56:23;3.80;99.90
3051;DHT22;1535;51.098;6.414;2023-03-05T03:58:50;3.80;99.90
3051;DHT22;1535;51.098;6.414;2023-03-05T04:01:19;3.80;99.90
3051;DHT22;1535;51.098;6.414;2023-03-05T04:03:46;3.70;99.90
3051;DHT22;1535;51.098;6.414;2023-03-05T04:06:15;3.80;99.90
3051;DHT22;1535;51.098;6.414;2023-03-05T04:08:41;3.80;99.90
3051;DHT22;1535;51.098;6.414;2023-03-05T04:11:09;3.70;99.90
3051;DHT22;1535;51.098;6.414;2023-03-05T04:13:36;3.70;99.90
3051;DHT22;1535;51.098;6.414;2023-03-05T04:16:03;3.70;99.90
3051;DHT22;1535;51.098;6.414;2023-03-05T04:18:30;3.70;99.90
3051;DHT22;1535;51.098;6.414;2023-03-05T04:20:56;3.70;99.90
3051;DHT22;1535;51.098;6.414;2023-03-05T04:23:24;3.70;99.90
3051;DHT22;1535;51.098;6.414;2023-03-05T04:25:52;3.80;99.90
3051;DHT22;1535;51.098;6.414;2023-03-05T04:28:18;3.80;99.90
3051;DHT22;1535;51.098;6.414;2023-03-05T04:30:45;3.80;99.90
3051;DHT22;1535;51.098;6.414;2023-03-05T04:33:12;3.80;99.90
3051;DHT22;1535;51.098;6.414;2023-03-05T04:35:39;3.70;99.90
3051;DHT22;1535;51.098;6.414;2023-03-05T04:38:07;3.60;99.90
3051;DHT22;1535;51.098;6.414;2023-03-05T04:40:36;3.60;99.90
3051;DHT22;1535;51.098;6.414;2023-03-05T04:43:02;3.70;99.90
3051;DHT22;1535;51.098;6.414;2023-03-05T04:45:30;3.70;99.90
3051;DHT22;1535;51.098;6.414;2023-03-05T04:47:56;3.70;99.90
3051;DHT22;1535;51.098;6.414;2023-03-05T04:50:24;3.60;99.90
3051;DHT22;1535;51.098;6.414;2023-03-05T04:52:50;3.70;99.90
3051;DHT22;1535;51.098;6.414;2023-03-05T04:55:18;3.60;99.90
3051;DHT22;1535;51.098;6.414;2023-03-05T04:57:46;3.70;99.90
3051;DHT22;1535;51.098;6.414;2023-03-05T05:00:14;3.50;99.90
3051;DHT22;1535;51.098;6.414;2023-03-05T05:02:43;3.50;99.90
3051;DHT22;1535;51.098;6.414;2023-03-05T05:05:13;3.50;99.90
3051;DHT22;1535;51.098;6.414;2023-03-05T05:07:40;3.50;99.90
3051;DHT22;1535;51.098;6.414;2023-03-05T05:10:08;3.60;99.90
3051;DHT22;1535;51.098;6.414;2023-03-05T05:12:36;3.60;99.90
3051;DHT22;1535;51.098;6.414;2023-03-05T05:15:06;3.70;99.90
3051;DHT22;1535;51.098;6.414;2023-03-05T05:17:33;3.70;99.90
3051;DHT22;1535;51.098;6.414;2023-03-05T05:20:01;3.70;99.90
3051;DHT22;1535;51.098;6.414;2023-03-05T05:22:31;3.70;99.90
3051;DHT22;1535;51.098;6.414;2023-03-05T05:24:58;3.80;99.90
3051;DHT22;1535;51.098;6.414;2023-03-05T05:27:24;3.80;99.90
3051;DHT22;1535;51.098;6.414;2023-03-05T05:29:51;3.70;99.90
3051;DHT22;1535;51.098;6.414;2023-03-05T05:32:21;3.80;99.90
3051;DHT22;1535;51.098;6.414;2023-03-05T05:34:52;3.70;99.90
3051;DHT22;1535;51.098;6.414;2023-03-05T05:37:19;3.60;99.90
3051;DHT22;1535;51.098;6.414;2023-03-05T05:39:45;3.60;99.90
3051;DHT22;1535;51.098;6.414;2023-03-05T05:42:15;3.60;99.90
3051;DHT22;1535;51.098;6.414;2023-03-05T05:44:41;3.60;99.90
3051;DHT22;1535;51.098;6.414;2023-03-05T05:47:09;3.60;99.90
3051;DHT22;1535;51.098;6.414;2023-03-05T05:49:37;3.60;99.90
3051;DHT22;1535;51.098;6.414;2023-03-05T05:52:04;3.50;99.90
3051;DHT22;1535;51.098;6.414;2023-03-05T05:54:31;3.60;99.90
3051;DHT22;1535;51.098;6.414;2023-03-05T05:56:58;3.50;99.90
3051;DHT22;1535;51.098;6.414;2023-03-05T05:59:25;3.50;99.90
3051;DHT22;1535;51.098;6.414;2023-03-05T06:01:52;3.50;99.90
3051;DHT22;1535;51.098;6.414;2023-03-05T06:04:19;3.60;99.90
3051;DHT22;1535;51.098;6.414;2023-03-05T06:06:48;3.60;99.90
3051;DHT22;1535;51.098;6.414;2023-03-05T06:09:16;3.60;99.90
3051;DHT22;1535;51.098;6.414;2023-03-05T06:11:43;3.60;99.90
3051;DHT22;1535;51.098;6.414;2023-03-05T06:14:11;3.60;99.90
3051;DHT22;1535;51.098;6.414;2023-03-05T06:16:38;3.60;99.90
3051;DHT22;1535;51.098;6.414;2023-03-05T06:19:05;3.60;99.90
3051;DHT22;1535;51.098;6.414;2023-03-05T06:21:33;3.60;99.90
3051;DHT22;1535;51.098;6.414;2023-03-05T06:24:03;3.60;99.90
3051;DHT22;1535;51.098;6.414;2023-03-05T06:26:30;3.60;99.90
3051;DHT22;1535;51.098;6.414;2023-03-05T06:28:57;3.60;99.90
3051;DHT22;1535;51.098;6.414;2023-03-05T06:31:25;3.50;99.90
3051;DHT22;1535;51.098;6.414;2023-03-05T06:33:54;3.40;99.90
3051;DHT22;1535;51.098;6.414;2023-03-05T06:36:22;3.50;99.90
3051;DHT22;1535;51.098;6.414;2023-03-05T06:38:50;3.50;99.90
3051;DHT22;1535;51.098;6.414;2023-03-05T06:41:21;3.60;99.90
3051;DHT22;1535;51.098;6.414;2023-03-05T06:43:49;3.60;99.90
3051;DHT22;1535;51.098;6.414;2023-03-05T06:46:17;3.70;99.90
3051;DHT22;1535;51.098;6.414;2023-03-05T06:48:46;3.70;99.90
3051;DHT22;1535;51.098;6.414;2023-03-05T06:51:13;3.60;99.90
3051;DHT22;1535;51.098;6.414;2023-03-05T06:53:41;3.60;99.90
3051;DHT22;1535;51.098;6.414;2023-03-05T06:56:09;3.60;99.90
3051;DHT22;1535;51.098;6.414;2023-03-05T06:58:39;3.60;99.90
3051;DHT22;1535;51.098;6.414;2023-03-05T07:01:06;3.70;99.90
3051;DHT22;1535;51.098;6.414;2023-03-05T07:03:34;3.70;99.90
3051;DHT22;1535;51.098;6.414;2023-03-05T07:06:02;3.60;99.90
3051;DHT22;1535;51.098;6.414;2023-03-05T07:08:30;3.70;99.90
3051;DHT22;1535;51.098;6.414;2023-03-05T07:10:58;3.80;99.90
3051;DHT22;1535;51.098;6.414;2023-03-05T07:13:26;3.90;99.90
3051;DHT22;1535;51.098;6.414;2023-03-05T07:15:55;3.90;99.90
3051;DHT22;1535;51.098;6.414;2023-03-05T07:18:22;3.90;99.90
3051;DHT22;1535;51.098;6.414;2023-03-05T07:20:50;4.00;99.90
3051;DHT22;1535;51.098;6.414;2023-03-05T07:23:16;4.00;99.90
3051;DHT22;1535;51.098;6.414;2023-03-05T07:25:43;4.10;99.90
3051;DHT22;1535;51.098;6.414;2023-03-05T07:28:10;4.20;99.90
3051;DHT22;1535;51.098;6.414;2023-03-05T07:30:37;4.10;99.90
3051;DHT22;1535;51.098;6.414;2023-03-05T07:33:05;4.20;99.90
3051;DHT22;1535;51.098;6.414;2023-03-05T07:35:32;4.20;99.90
3051;DHT22;1535;51.098;6.414;2023-03-05T07:38:00;4.30;99.90
3051;DHT22;1535;51.098;6.414;2023-03-05T07:40:27;4.30;99.90
3051;DHT22;1535;51.098;6.414;2023-03-05T07:42:54;4.40;99.90
3051;DHT22;1535;51.098;6.414;2023-03-05T07:45:21;4.50;99.90
3051;DHT22;1535;51.098;6.414;2023-03-05T07:47:48;4.50;99.90
3051;DHT22;1535;51.098;6.414;2023-03-05T07:50:17;4.50;99.90
3051;DHT22;1535;51.098;6.414;2023-03-05T07:52:44;4.60;99.90
3051;DHT22;1535;51.098;6.414;2023-03-05T07:55:12;4.60;99.90
3051;DHT22;1535;51.098;6.414;2023-03-05T07:57:40;4.70;99.90
3051;DHT22;1535;51.098;6.414;2023-03-05T08:00:08;4.80;99.90
3051;DHT22;1535;51.098;6.414;2023-03-05T08:02:35;4.70;99.90
3051;DHT22;1535;51.098;6.414;2023-03-05T08:05:02;4.80;99.90
3051;DHT22;1535;51.098;6.414;2023-03-05T08:07:30;4.90;99.90
3051;DHT22;1535;51.098;6.414;2023-03-05T08:09:58;5.00;99.90
3051;DHT22;1535;51.098;6.414;2023-03-05T08:12:25;5.00;99.90
3051;DHT22;1535;51.098;6.414;2023-03-05T08:14:51;5.00;99.90
3051;DHT22;1535;51.098;6.414;2023-03-05T08:17:18;5.00;99.90
3051;DHT22;1535;51.098;6.414;2023-03-05T08:19:46;5.10;99.90
3051;DHT22;1535;51.098;6.414;2023-03-05T08:22:12;5.10;99.90
3051;DHT22;1535;51.098;6.414;2023-03-05T08:24:42;5.30;99.90
3051;DHT22;1535;51.098;6.414;2023-03-05T08:27:08;5.30;99.90
3051;DHT22;1535;51.098;6.414;2023-03-05T08:29:36;5.50;99.90
3051;DHT22;1535;51.098;6.414;2023-03-05T08:32:03;5.50;99.90
3051;DHT22;1535;51.098;6.414;2023-03-05T08:34:30;5.60;99.90
3051;DHT22;1535;51.098;6.414;2023-03-05T08:36:57;5.70;99.90
3051;DHT22;1535;51.098;6.414;2023-03-05T08:39:24;5.60;99.90
3051;DHT22;1535;51.098;6.414;2023-03-05T08:41:53;5.60;99.90
3051;DHT22;1535;51.098;6.414;2023-03-05T08:44:20;5.70;99.90
3051;DHT22;1535;51.098;6.414;2023-03-05T08:46:47;5.70;99.90
3051;DHT22;1535;51.098;6.414;2023-03-05T08:49:14;5.70;99.90
3051;DHT22;1535;51.098;6.414;2023-03-05T08:51:41;5.50;99.90
3051;DHT22;1535;51.098;6.414;2023-03-05T08:54:08;5.50;99.90
3051;DHT22;1535;51.098;6.414;2023-03-05T08:56:35;5.60;99.90
3051;DHT22;1535;51.098;6.414;2023-03-05T08:59:04;5.70;99.90
3051;DHT22;1535;51.098;6.414;2023-03-05T09:01:31;5.80;99.90
3051;DHT22;1535;51.098;6.414;2023-03-05T09:03:58;5.50;99.90
3051;DHT22;1535;51.098;6.414;2023-03-05T09:06:26;5.60;99.90
3051;DHT22;1535;51.098;6.414;2023-03-05T09:08:55;5.60;99.90
3051;DHT22;1535;51.098;6.414;2023-03-05T09:11:22;5.60;99.90
3051;DHT22;1535;51.098;6.414;2023-03-05T09:13:49;5.50;99.90
3051;DHT22;1535;51.098;6.414;2023-03-05T09:16:18;5.60;99.90
3051;DHT22;1535;51.098;6.414;2023-03-05T09:18:45;5.50;99.90
3051;DHT22;1535;51.098;6.414;2023-03-05T09:21:14;5.40;99.90
3051;DHT22;1535;51.098;6.414;2023-03-05T09:23:42;5.40;99.90
3051;DHT22;1535;51.098;6.414;2023-03-05T09:26:12;5.10;99.90
3051;DHT22;1535;51.098;6.414;2023-03-05T09:28:40;5.10;99.90
3051;DHT22;1535;51.098;6.414;2023-03-05T09:31:08;5.00;99.90
3051;DHT22;1535;51.098;6.414;2023-03-05T09:33:38;5.00;99.90
3051;DHT22;1535;51.098;6.414;2023-03-05T09:36:12;5.20;99.90
3051;DHT22;1535;51.098;6.414;2023-03-05T09:38:41;5.20;99.90
3051;DHT22;1535;51.098;6.414;2023-03-05T09:41:15;5.00;99.90
3051;DHT22;1535;51.098;6.414;2023-03-05T09:43:50;5.10;99.90
3051;DHT22;1535;51.098;6.414;2023-03-05T09:46:30;5.00;99.90
3051;DHT22;1535;51.098;6.414;2023-03-05T09:49:09;4.90;99.90
3051;DHT22;1535;51.098;6.414;2023-03-05T09:51:38;4.90;99.90
3051;DHT22;1535;51.098;6.414;2023-03-05T09:54:12;4.90;99.90
3051;DHT22;1535;51.098;6.414;2023-03-05T09:56:43;4.90;99.90
3051;DHT22;1535;51.098;6.414;2023-03-05T09:59:18;5.00;99.90
3051;DHT22;1535;51.098;6.414;2023-03-05T10:01:47;5.00;99.90
3051;DHT22;1535;51.098;6.414;2023-03-05T10:04:19;5.10;99.90
3051;DHT22;1535;51.098;6.414;2023-03-05T10:06:51;5.30;99.90
3051;DHT22;1535;51.098;6.414;2023-03-05T10:09:30;5.50;99.90
3051;DHT22;1535;51.098;6.414;2023-03-05T10:12:03;5.50;99.90
3051;DHT22;1535;51.098;6.414;2023-03-05T10:14:33;5.60;99.90
3051;DHT22;1535;51.098;6.414;2023-03-05T10:20:13;5.80;99.90
3051;DHT22;1535;51.098;6.414;2023-03-05T10:22:55;6.00;99.90
3051;DHT22;1535;51.098;6.414;2023-03-05T10:25:39;6.00;99.90
3051;DHT22;1535;51.098;6.414;2023-03-05T10:28:13;6.00;99.90
3051;DHT22;1535;51.098;6.414;2023-03-05T10:30:54;6.00;99.90
3051;DHT22;1535;51.098;6.414;2023-03-05T10:33:31;5.80;99.90
3051;DHT22;1535;51.098;6.414;2023-03-05T10:36:22;5.60;99.90
3051;DHT22;1535;51.098;6.414;2023-03-05T10:39:04;5.50;99.90
3051;DHT22;1535;51.098;6.414;2023-03-05T10:41:39;5.50;99.90
3051;DHT22;1535;51.098;6.414;2023-03-05T10:44:13;5.40;99.90
3051;DHT22;1535;51.098;6.414;2023-03-05T10:46:44;5.40;99.90
3051;DHT22;1535;51.098;6.414;2023-03-05T10:49:16;5.60;99.90
3051;DHT22;1535;51.098;6.414;2023-03-05T10:51:51;5.80;99.90
3051;DHT22;1535;51.098;6.414;2023-03-05T10:54:23;6.10;99.90
3051;DHT22;1535;51.098;6.414;2023-03-05T10:57:02;6.30;99.90
3051;DHT22;1535;51.098;6.414;2023-03-05T10:59:30;6.50;99.90
3051;DHT22;1535;51.098;6.414;2023-03-05T11:02:02;6.80;99.90
3051;DHT22;1535;51.098;6.414;2023-03-05T11:04:33;6.80;99.90
3051;DHT22;1535;51.098;6.414;2023-03-05T11:07:07;6.70;99.90
3051;DHT22;1535;51.098;6.414;2023-03-05T11:10:05;6.90;99.90
3051;DHT22;1535;51.098;6.414;2023-03-05T11:12:33;6.80;99.90
3051;DHT22;1535;51.098;6.414;2023-03-05T11:15:09;6.60;99.90
3051;DHT22;1535;51.098;6.414;2023-03-05T11:18:03;6.50;99.90
3051;DHT22;1535;51.098;6.414;2023-03-05T11:20:33;6.40;99.90
3051;DHT22;1535;51.098;6.414;2023-03-05T11:23:11;6.20;99.90
3051;DHT22;1535;51.098;6.414;2023-03-05T11:25:57;5.90;99.90
3051;DHT22;1535;51.098;6.414;2023-03-05T11:28:28;5.80;99.90
3051;DHT22;1535;51.098;6.414;2023-03-05T11:31:11;5.80;99.90
3051;DHT22;1535;51.098;6.414;2023-03-05T11:33:56;5.90;99.90
3051;DHT22;1535;51.098;6.414;2023-03-05T11:36:25;5.90;99.90
3051;DHT22;1535;51.098;6.414;2023-03-05T11:38:55;5.90;99.90
3051;DHT22;1535;51.098;6.414;2023-03-05T11:41:31;6.20;99.90
3051;DHT22;1535;51.098;6.414;2023-03-05T11:44:02;6.30;99.90
3051;DHT22;1535;51.098;6.414;2023-03-05T11:46:41;6.10;99.90
3051;DHT22;1535;51.098;6.414;2023-03-05T11:49:13;6.20;99.90
3051;DHT22;1535;51.098;6.414;2023-03-05T11:51:44;6.20;99.90
3051;DHT22;1535;51.098;6.414;2023-03-05T11:54:20;6.10;99.90
3051;DHT22;1535;51.098;6.414;2023-03-05T11:56:50;5.80;99.90
3051;DHT22;1535;51.098;6.414;2023-03-05T11:59:21;5.60;99.90
3051;DHT22;1535;51.098;6.414;2023-03-05T12:01:52;5.50;99.90
3051;DHT22;1535;51.098;6.414;2023-03-05T12:04:20;5.60;99.90
3051;DHT22;1535;51.098;6.414;2023-03-05T12:06:50;5.90;99.90
3051;DHT22;1535;51.098;6.414;2023-03-05T12:09:24;6.10;99.90
3051;DHT22;1535;51.098;6.414;2023-03-05T12:11:59;6.10;99.90
3051;DHT22;1535;51.098;6.414;2023-03-05T12:14:34;6.20;99.90
3051;DHT22;1535;51.098;6.414;2023-03-05T12:17:08;6.30;99.90
3051;DHT22;1535;51.098;6.414;2023-03-05T12:19:40;6.50;99.90
3051;DHT22;1535;51.098;6.414;2023-03-05T12:22:18;6.50;99.90
3051;DHT22;1535;51.098;6.414;2023-03-05T12:24:45;6.50;99.90
3051;DHT22;1535;51.098;6.414;2023-03-05T12:27:16;6.50;99.90
3051;DHT22;1535;51.098;6.414;2023-03-05T12:29:56;6.50;99.90
3051;DHT22;1535;51.098;6.414;2023-03-05T12:32:59;6.40;99.90
3051;DHT22;1535;51.098;6.414;2023-03-05T12:35:31;6.20;99.90
3051;DHT22;1535;51.098;6.414;2023-03-05T12:38:27;6.10;99.90
3051;DHT22;1535;51.098;6.414;2023-03-05T12:41:31;6.20;99.90
3051;DHT22;1535;51.098;6.414;2023-03-05T12:44:16;6.30;99.90
3051;DHT22;1535;51.098;6.414;2023-03-05T12:46:44;6.30;99.90
3051;DHT22;1535;51.098;6.414;2023-03-05T12:49:36;6.40;99.90
3051;DHT22;1535;51.098;6.414;2023-03-05T12:52:06;6.60;99.90
3051;DHT22;1535;51.098;6.414;2023-03-05T12:54:40;6.70;99.90
3051;DHT22;1535;51.098;6.414;2023-03-05T12:57:16;6.40;99.90
3051;DHT22;1535;51.098;6.414;2023-03-05T12:59:49;6.00;99.90
3051;DHT22;1535;51.098;6.414;2023-03-05T13:02:21;5.70;99.90
3051;DHT22;1535;51.098;6.414;2023-03-05T13:04:49;5.50;99.90
3051;DHT22;1535;51.098;6.414;2023-03-05T13:07:18;5.60;99.90
3051;DHT22;1535;51.098;6.414;2023-03-05T13:09:53;5.80;99.90
3051;DHT22;1535;51.098;6.414;2023-03-05T13:12:20;6.00;99.90
3051;DHT22;1535;51.098;6.414;2023-03-05T13:14:56;6.20;99.90
3051;DHT22;1535;51.098;6.414;2023-03-05T13:17:28;6.40;99.90
3051;DHT22;1535;51.098;6.414;2023-03-05T13:19:55;6.50;99.90
3051;DHT22;1535;51.098;6.414;2023-03-05T13:22:22;6.50;99.90
3051;DHT22;1535;51.098;6.414;2023-03-05T13:25:04;6.40;99.90
3051;DHT22;1535;51.098;6.414;2023-03-05T13:27:32;6.30;99.90
3051;DHT22;1535;51.098;6.414;2023-03-05T13:30:00;6.40;99.90
3051;DHT22;1535;51.098;6.414;2023-03-05T13:32:29;6.40;99.90
3051;DHT22;1535;51.098;6.414;2023-03-05T13:34:58;6.30;99.90
3051;DHT22;1535;51.098;6.414;2023-03-05T13:37:26;6.40;99.90
3051;DHT22;1535;51.098;6.414;2023-03-05T13:39:55;6.40;99.90
3051;DHT22;1535;51.098;6.414;2023-03-05T13:42:24;6.30;99.90
3051;DHT22;1535;51.098;6.414;2023-03-05T13:44:53;6.50;99.90
3051;DHT22;1535;51.098;6.414;2023-03-05T13:47:24;6.70;99.90
3051;DHT22;1535;51.098;6.414;2023-03-05T13:49:56;6.90;99.90
3051;DHT22;1535;51.098;6.414;2023-03-05T13:52:25;7.10;99.90
3051;DHT22;1535;51.098;6.414;2023-03-05T13:54:52;6.90;99.90
3051;DHT22;1535;51.098;6.414;2023-03-05T13:57:35;7.10;99.90
3051;DHT22;1535;51.098;6.414;2023-03-05T14:00:04;7.20;99.90
3051;DHT22;1535;51.098;6.414;2023-03-05T14:02:32;7.20;99.90
3051;DHT22;1535;51.098;6.414;2023-03-05T14:04:59;7.10;99.90
3051;DHT22;1535;51.098;6.414;2023-03-05T14:07:31;7.00;99.90
3051;DHT22;1535;51.098;6.414;2023-03-05T14:09:58;7.00;99.90
3051;DHT22;1535;51.098;6.414;2023-03-05T14:12:31;7.00;99.90
3051;DHT22;1535;51.098;6.414;2023-03-05T14:14:59;6.60;99.90
3051;DHT22;1535;51.098;6.414;2023-03-05T14:17:41;6.60;99.90
3051;DHT22;1535;51.098;6.414;2023-03-05T14:20:20;6.70;99.90
3051;DHT22;1535;51.098;6.414;2023-03-05T14:22:48;6.80;99.90
3051;DHT22;1535;51.098;6.414;2023-03-05T14:25:29;6.80;99.90
3051;DHT22;1535;51.098;6.414;2023-03-05T14:27:58;6.80;99.90
3051;DHT22;1535;51.098;6.414;2023-03-05T14:30:26;6.80;99.90
3051;DHT22;1535;51.098;6.414;2023-03-05T14:32:57;6.90;99.90
3051;DHT22;1535;51.098;6.414;2023-03-05T14:35:26;6.90;99.90
3051;DHT22;1535;51.098;6.414;2023-03-05T14:37:55;6.90;99.90
3051;DHT22;1535;51.098;6.414;2023-03-05T14:40:26;6.80;99.90
3051;DHT22;1535;51.098;6.414;2023-03-05T14:42:55;6.80;99.90
3051;DHT22;1535;51.098;6.414;2023-03-05T14:45:23;6.80;99.90
3051;DHT22;1535;51.098;6.414;2023-03-05T14:47:52;6.70;99.90
3051;DHT22;1535;51.098;6.414;2023-03-05T14:50:22;6.70;99.90
3051;DHT22;1535;51.098;6.414;2023-03-05T14:52:51;6.80;99.90
3051;DHT22;1535;51.098;6.414;2023-03-05T14:55:21;6.70;99.90
3051;DHT22;1535;51.098;6.414;2023-03-05T14:57:48;6.70;99.90
3051;DHT22;1535;51.098;6.414;2023-03-05T15:00:17;6.80;99.90
3051;DHT22;1535;51.098;6.414;2023-03-05T15:02:45;6.80;99.90
3051;DHT22;1535;51.098;6.414;2023-03-05T15:05:12;6.80;99.90
3051;DHT22;1535;51.098;6.414;2023-03-05T15:07:42;6.70;99.90
3051;DHT22;1535;51.098;6.414;2023-03-05T15:10:11;6.70;99.90
3051;DHT22;1535;51.098;6.414;2023-03-05T15:12:39;6.70;99.90
3051;DHT22;1535;51.098;6.414;2023-03-05T15:15:09;6.70;99.90
3051;DHT22;1535;51.098;6.414;2023-03-05T15:17:38;6.70;99.90
3051;DHT22;1535;51.098;6.414;2023-03-05T15:20:08;6.70;99.90
3051;DHT22;1535;51.098;6.414;2023-03-05T15:22:37;6.80;99.90
3051;DHT22;1535;51.098;6.414;2023-03-05T15:25:06;6.70;99.90
3051;DHT22;1535;51.098;6.414;2023-03-05T15:27:33;6.60;99.90
3051;DHT22;1535;51.098;6.414;2023-03-05T15:30:01;6.60;99.90
3051;DHT22;1535;51.098;6.414;2023-03-05T15:32:28;6.60;99.90
3051;DHT22;1535;51.098;6.414;2023-03-05T15:34:56;6.50;99.90
3051;DHT22;1535;51.098;6.414;2023-03-05T15:37:24;6.50;99.90
3051;DHT22;1535;51.098;6.414;2023-03-05T15:39:51;6.40;99.90
3051;DHT22;1535;51.098;6.414;2023-03-05T15:42:20;6.50;99.90
3051;DHT22;1535;51.098;6.414;2023-03-05T15:44:46;6.60;99.90
3051;DHT22;1535;51.098;6.414;2023-03-05T15:47:13;6.50;99.90
3051;DHT22;1535;51.098;6.414;2023-03-05T15:49:40;6.50;99.90
3051;DHT22;1535;51.098;6.414;2023-03-05T15:52:07;6.40;99.90
3051;DHT22;1535;51.098;6.414;2023-03-05T15:54:34;6.40;99.90
3051;DHT22;1535;51.098;6.414;2023-03-05T15:57:01;6.20;99.90
3051;DHT22;1535;51.098;6.414;2023-03-05T15:59:29;6.10;99.90
3051;DHT22;1535;51.098;6.414;2023-03-05T16:01:56;6.00;99.90
3051;DHT22;1535;51.098;6.414;2023-03-05T16:04:23;6.00;99.90
3051;DHT22;1535;51.098;6.414;2023-03-05T16:06:49;6.10;99.90
3051;DHT22;1535;51.098;6.414;2023-03-05T16:09:19;6.00;99.90
3051;DHT22;1535;51.098;6.414;2023-03-05T16:11:48;5.80;99.90
3051;DHT22;1535;51.098;6.414;2023-03-05T16:14:19;5.80;99.90
3051;DHT22;1535;51.098;6.414;2023-03-05T16:16:49;5.70;99.90
3051;DHT22;1535;51.098;6.414;2023-03-05T16:19:17;5.70;99.90
3051;DHT22;1535;51.098;6.414;2023-03-05T16:21:45;5.70;99.90
3051;DHT22;1535;51.098;6.414;2023-03-05T16:24:11;5.60;99.90
3051;DHT22;1535;51.098;6.414;2023-03-05T16:26:39;5.60;99.90
3051;DHT22;1535;51.098;6.414;2023-03-05T16:29:07;5.60;99.90
3051;DHT22;1535;51.098;6.414;2023-03-05T16:31:35;5.60;99.90
3051;DHT22;1535;51.098;6.414;2023-03-05T16:34:06;5.60;99.90
3051;DHT22;1535;51.098;6.414;2023-03-05T16:36:33;5.50;99.90